sensor_id;sensor_type;location;lat;lon;timestamp;pressure;altitude;pressure_sealevel;temperature;humidity
15260;BME280;34462;51.368;12.364;2023-06-26T00:00:26;21265.22;;;-141.84;69.08
15260;BME280;34462;51.368;12.364;2023-06-26T00:02:54;21246.91;;;-141.84;69.49
15260;BME280;34462;51.368;12.364;2023-06-26T00:05:23;21263.19;;;-141.84;69.23
15260;BME280;34462;51.368;12.364;2023-06-26T00:07:51;21269.28;;;-141.84;69.30
15260;BME280;34462;51.368;12.364;2023-06-26T00:10:20;21257.09;;;-141.84;69.16
15260;BME280;34462;51.368;12.364;2023-06-26T00:12:48;21297.75;;;-141.84;69.12
15260;BME280;34462;51.368;12.364;2023-06-26T00:15:18;21263.19;;;-141.84;68.80
15260;BME280;34462;51.368;12.364;2023-06-26T00:17:47;21316.03;;;-141.84;67.98
15260;BME280;34462;51.368;12.364;2023-06-26T00:20:15;21297.75;;;-141.84;68.20
15260;BME280;34462;51.368;12.364;2023-06-26T00:22:46;21257.09;;;-141.84;68.37
15260;BME280;34462;51.368;12.364;2023-06-26T00:25:14;21259.13;;;-141.84;68.55
15260;BME280;34462;51.368;12.364;2023-06-26T00:27:43;21194.06;;;-141.84;69.16
15260;BME280;34462;51.368;12.364;2023-06-26T00:30:12;21214.38;;;-141.84;69.36
15260;BME280;34462;51.368;12.364;2023-06-26T00:32:42;21206.25;;;-141.84;69.52
15260;BME280;34462;51.368;12.364;2023-06-26T00:35:10;21230.66;;;-141.84;69.69
15260;BME280;34462;51.368;12.364;2023-06-26T00:37:39;21265.22;;;-141.84;69.60
15260;BME280;34462;51.368;12.364;2023-06-26T00:40:08;21204.22;;;-141.84;69.52
15260;BME280;34462;51.368;12.364;2023-06-26T00:42:37;21200.16;;;-141.84;69.73
15260;BME280;34462;51.368;12.364;2023-06-26T00:45:06;21169.66;;;-141.84;69.50
15260;BME280;34462;51.368;12.364;2023-06-26T00:47:34;21222.53;;;-141.84;69.29
15260;BME280;34462;51.368;12.364;2023-06-26T00:50:05;21208.28;;;-141.84;69.96
15260;BME280;34462;51.368;12.364;2023-06-26T00:52:34;21210.31;;;-141.84;70.25
15260;BME280;34462;51.368;12.364;2023-06-26T00:55:03;21175.75;;;-141.84;70.08
15260;BME280;34462;51.368;12.364;2023-06-26T00:57:32;21183.88;;;-141.84;69.68
15260;BME280;34462;51.368;12.364;2023-06-26T01:00:01;21216.41;;;-141.84;69.85
15260;BME280;34462;51.368;12.364;2023-06-26T01:02:31;21214.38;;;-141.84;69.82
15260;BME280;34462;51.368;12.364;2023-06-26T01:05:03;21192.03;;;-141.84;70.17
15260;BME280;34462;51.368;12.364;2023-06-26T01:07:34;21175.75;;;-141.84;69.83
15260;BME280;34462;51.368;12.364;2023-06-26T01:10:05;21220.47;;;-141.84;69.81
15260;BME280;34462;51.368;12.364;2023-06-26T01:12:34;21204.22;;;-141.84;69.67
15260;BME280;34462;51.368;12.364;2023-06-26T01:15:06;21167.63;;;-141.84;69.73
15260;BME280;34462;51.368;12.364;2023-06-26T01:17:37;21173.72;;;-141.84;70.31
15260;BME280;34462;51.368;12.364;2023-06-26T01:20:09;21200.16;;;-141.84;70.25
15260;BME280;34462;51.368;12.364;2023-06-26T01:22:42;21145.25;;;-141.84;70.91
15260;BME280;34462;51.368;12.364;2023-06-26T01:25:18;21137.13;;;-141.84;70.68
15260;BME280;34462;51.368;12.364;2023-06-26T01:27:53;21114.75;;;-141.84;71.48
15260;BME280;34462;51.368;12.364;2023-06-26T01:30:24;21135.09;;;-141.84;71.59
15260;BME280;34462;51.368;12.364;2023-06-26T01:32:53;21122.91;;;-141.84;71.36
15260;BME280;34462;51.368;12.364;2023-06-26T01:35:22;21106.63;;;-141.84;71.53
15260;BME280;34462;51.368;12.364;2023-06-26T01:37:50;21118.84;;;-141.84;71.25
15260;BME280;34462;51.368;12.364;2023-06-26T01:40:19;21098.50;;;-141.84;70.97
15260;BME280;34462;51.368;12.364;2023-06-26T01:42:47;21143.22;;;-141.84;70.80
15260;BME280;34462;51.368;12.364;2023-06-26T01:45:24;21159.50;;;-141.84;70.38
15260;BME280;34462;51.368;12.364;2023-06-26T01:47:57;21133.06;;;-141.84;71.08
15260;BME280;34462;51.368;12.364;2023-06-26T01:50:32;21088.34;;;-141.84;70.80
15260;BME280;34462;51.368;12.364;2023-06-26T01:53:04;21070.03;;;-141.84;70.64
15260;BME280;34462;51.368;12.364;2023-06-26T01:55:40;21098.50;;;-141.84;71.24
15260;BME280;34462;51.368;12.364;2023-06-26T01:58:10;21116.78;;;-141.84;70.79
15260;BME280;34462;51.368;12.364;2023-06-26T02:00:40;21031.41;;;-141.84;71.06
15260;BME280;34462;51.368;12.364;2023-06-26T02:03:09;21094.44;;;-141.84;71.11
15260;BME280;34462;51.368;12.364;2023-06-26T02:05:38;21108.66;;;-141.84;70.68
15260;BME280;34462;51.368;12.364;2023-06-26T02:08:08;21088.34;;;-141.84;71.22
15260;BME280;34462;51.368;12.364;2023-06-26T02:10:37;21110.69;;;-141.84;71.20
15260;BME280;34462;51.368;12.364;2023-06-26T02:13:06;21076.13;;;-141.84;71.66
15260;BME280;34462;51.368;12.364;2023-06-26T02:15:35;21100.53;;;-141.84;72.25
15260;BME280;34462;51.368;12.364;2023-06-26T02:18:04;21065.97;;;-141.84;72.43
15260;BME280;34462;51.368;12.364;2023-06-26T02:20:33;21033.44;;;-141.84;72.43
15260;BME280;34462;51.368;12.364;2023-06-26T02:23:02;21086.31;;;-141.84;71.88
15260;BME280;34462;51.368;12.364;2023-06-26T02:25:30;21065.97;;;-141.84;72.49
15260;BME280;34462;51.368;12.364;2023-06-26T02:27:59;21037.50;;;-141.84;72.34
15260;BME280;34462;51.368;12.364;2023-06-26T02:30:27;21035.47;;;-141.84;72.67
15260;BME280;34462;51.368;12.364;2023-06-26T02:32:56;21007.00;;;-141.84;72.92
15260;BME280;34462;51.368;12.364;2023-06-26T02:35:26;21031.41;;;-141.84;72.88
15260;BME280;34462;51.368;12.364;2023-06-26T02:37:54;21002.94;;;-141.84;73.00
15260;BME280;34462;51.368;12.364;2023-06-26T02:40:23;21021.25;;;-141.84;72.77
15260;BME280;34462;51.368;12.364;2023-06-26T02:42:51;21035.47;;;-141.84;72.77
15260;BME280;34462;51.368;12.364;2023-06-26T02:45:20;21070.03;;;-141.84;72.20
15260;BME280;34462;51.368;12.364;2023-06-26T02:47:48;21021.25;;;-141.84;72.18
15260;BME280;34462;51.368;12.364;2023-06-26T02:50:17;21000.91;;;-141.84;72.92
15260;BME280;34462;51.368;12.364;2023-06-26T02:52:47;21009.03;;;-141.84;73.43
15260;BME280;34462;51.368;12.364;2023-06-26T02:55:19;21015.16;;;-141.84;73.66
15260;BME280;34462;51.368;12.364;2023-06-26T02:57:49;20986.69;;;-141.84;73.22
15260;BME280;34462;51.368;12.364;2023-06-26T03:00:18;21021.25;;;-141.84;72.87
15260;BME280;34462;51.368;12.364;2023-06-26T03:02:47;21027.34;;;-141.84;73.06
15260;BME280;34462;51.368;12.364;2023-06-26T03:05:15;21002.94;;;-141.84;73.15
15260;BME280;34462;51.368;12.364;2023-06-26T03:07:45;21000.91;;;-141.84;72.99
15260;BME280;34462;51.368;12.364;2023-06-26T03:10:14;21023.28;;;-141.84;73.28
15260;BME280;34462;51.368;12.364;2023-06-26T03:12:42;20998.88;;;-141.84;73.25
15260;BME280;34462;51.368;12.364;2023-06-26T03:15:11;21019.22;;;-141.84;73.29
15260;BME280;34462;51.368;12.364;2023-06-26T03:17:39;21009.03;;;-141.84;73.58
15260;BME280;34462;51.368;12.364;2023-06-26T03:20:08;21007.00;;;-141.84;73.36
15260;BME280;34462;51.368;12.364;2023-06-26T03:22:37;21029.38;;;-141.84;72.53
15260;BME280;34462;51.368;12.364;2023-06-26T03:25:07;21023.28;;;-141.84;72.34
15260;BME280;34462;51.368;12.364;2023-06-26T03:27:36;21027.34;;;-141.84;72.48
15260;BME280;34462;51.368;12.364;2023-06-26T03:30:05;21023.28;;;-141.84;72.65
15260;BME280;34462;51.368;12.364;2023-06-26T03:32:33;21023.28;;;-141.84;72.52
15260;BME280;34462;51.368;12.364;2023-06-26T03:35:02;21059.88;;;-141.84;72.07
15260;BME280;34462;51.368;12.364;2023-06-26T03:37:33;21078.16;;;-141.84;72.13
15260;BME280;34462;51.368;12.364;2023-06-26T03:40:01;21070.03;;;-141.84;71.58
15260;BME280;34462;51.368;12.364;2023-06-26T03:42:33;21082.25;;;-141.84;71.62
15260;BME280;34462;51.368;12.364;2023-06-26T03:45:01;21049.72;;;-141.84;71.44
15260;BME280;34462;51.368;12.364;2023-06-26T03:47:30;21090.38;;;-141.84;71.43
15260;BME280;34462;51.368;12.364;2023-06-26T03:49:58;21104.59;;;-141.84;71.08
15260;BME280;34462;51.368;12.364;2023-06-26T03:52:27;21112.72;;;-141.84;71.10
15260;BME280;34462;51.368;12.364;2023-06-26T03:54:58;21110.69;;;-141.84;70.68
15260;BME280;34462;51.368;12.364;2023-06-26T03:57:26;21139.16;;;-141.84;70.50
15260;BME280;34462;51.368;12.364;2023-06-26T03:59:56;21126.97;;;-141.84;70.86
15260;BME280;34462;51.368;12.364;2023-06-26T04:02:25;21129.00;;;-141.84;70.62
15260;BME280;34462;51.368;12.364;2023-06-26T04:04:53;21135.09;;;-141.84;70.62
15260;BME280;34462;51.368;12.364;2023-06-26T04:07:23;21171.69;;;-141.84;70.50
15260;BME280;34462;51.368;12.364;2023-06-26T04:09:52;21114.75;;;-141.84;70.82
15260;BME280;34462;51.368;12.364;2023-06-26T04:12:20;21153.41;;;-141.84;70.11
15260;BME280;34462;51.368;12.364;2023-06-26T04:14:49;21147.28;;;-141.84;70.60
15260;BME280;34462;51.368;12.364;2023-06-26T04:17:19;21163.56;;;-141.84;69.88
15260;BME280;34462;51.368;12.364;2023-06-26T04:19:47;21190.00;;;-141.84;69.81
15260;BME280;34462;51.368;12.364;2023-06-26T04:22:16;21179.81;;;-141.84;69.78
15260;BME280;34462;51.368;12.364;2023-06-26T04:24:44;21224.56;;;-141.84;69.72
15260;BME280;34462;51.368;12.364;2023-06-26T04:27:13;21236.75;;;-141.84;69.56
15260;BME280;34462;51.368;12.364;2023-06-26T04:29:42;21228.63;;;-141.84;68.81
15260;BME280;34462;51.368;12.364;2023-06-26T04:32:10;21240.81;;;-141.84;68.54
15260;BME280;34462;51.368;12.364;2023-06-26T04:34:40;21263.19;;;-141.84;67.80
15260;BME280;34462;51.368;12.364;2023-06-26T04:37:11;21318.06;;;-141.84;66.78
15260;BME280;34462;51.368;12.364;2023-06-26T04:39:43;21326.22;;;-141.84;66.83
15260;BME280;34462;51.368;12.364;2023-06-26T04:42:12;21338.41;;;-141.84;66.76
15260;BME280;34462;51.368;12.364;2023-06-26T04:44:40;21397.38;;;-141.84;65.65
15260;BME280;34462;51.368;12.364;2023-06-26T04:47:09;21464.47;;;-141.84;65.02
15260;BME280;34462;51.368;12.364;2023-06-26T04:49:39;21494.97;;;-141.84;65.42
15260;BME280;34462;51.368;12.364;2023-06-26T04:52:12;21814.19;;;-141.84;61.54
15260;BME280;34462;51.368;12.364;2023-06-26T04:54:42;22351.03;;;-141.84;54.63
15260;BME280;34462;51.368;12.364;2023-06-26T04:57:10;22981.53;;;-141.84;48.48
15260;BME280;34462;51.368;12.364;2023-06-26T04:59:39;23646.72;;;-141.84;44.28
15260;BME280;34462;51.368;12.364;2023-06-26T05:02:07;24086.16;;;-141.84;42.37
15260;BME280;34462;51.368;12.364;2023-06-26T05:04:36;24662.00;;;-141.84;39.87
15260;BME280;34462;51.368;12.364;2023-06-26T05:07:06;25109.69;;;-141.84;38.38
15260;BME280;34462;51.368;12.364;2023-06-26T05:09:35;25683.66;;;-141.84;36.89
15260;BME280;34462;51.368;12.364;2023-06-26T05:12:04;25923.84;;;-141.84;35.97
15260;BME280;34462;51.368;12.364;2023-06-26T05:14:33;26459.22;;;-141.84;34.42
15260;BME280;34462;51.368;12.364;2023-06-26T05:17:01;26326.88;;;-141.84;34.87
15260;BME280;34462;51.368;12.364;2023-06-26T05:19:30;26530.47;;;-141.84;34.43
15260;BME280;34462;51.368;12.364;2023-06-26T05:21:59;26780.88;;;-141.84;34.03
15260;BME280;34462;51.368;12.364;2023-06-26T05:24:32;26670.94;;;-141.84;33.91
15260;BME280;34462;51.368;12.364;2023-06-26T05:27:01;26595.63;;;-141.84;34.08
15260;BME280;34462;51.368;12.364;2023-06-26T05:29:31;26314.69;;;-141.84;34.51
15260;BME280;34462;51.368;12.364;2023-06-26T05:32:05;26461.25;;;-141.84;34.15
15260;BME280;34462;51.368;12.364;2023-06-26T05:34:34;26536.56;;;-141.84;33.96
15260;BME280;34462;51.368;12.364;2023-06-26T05:37:03;26202.72;;;-141.84;34.75
15260;BME280;34462;51.368;12.364;2023-06-26T05:39:35;25976.75;;;-141.84;34.98
15260;BME280;34462;51.368;12.364;2023-06-26T05:42:04;25427.19;;;-141.84;35.74
15260;BME280;34462;51.368;12.364;2023-06-26T05:44:33;24912.28;;;-141.84;37.40
15260;BME280;34462;51.368;12.364;2023-06-26T05:47:02;24326.25;;;-141.84;38.95
15260;BME280;34462;51.368;12.364;2023-06-26T05:49:30;23840.00;;;-141.84;41.02
15260;BME280;34462;51.368;12.364;2023-06-26T05:51:59;23532.78;;;-141.84;42.82
15260;BME280;34462;51.368;12.364;2023-06-26T05:54:28;23315.13;;;-141.84;43.83
15260;BME280;34462;51.368;12.364;2023-06-26T05:56:59;23146.28;;;-141.84;44.43
15260;BME280;34462;51.368;12.364;2023-06-26T05:59:28;23026.28;;;-141.84;46.00
15260;BME280;34462;51.368;12.364;2023-06-26T06:01:59;22946.97;;;-141.84;46.54
15260;BME280;34462;51.368;12.364;2023-06-26T06:04:27;22855.44;;;-141.84;46.83
15260;BME280;34462;51.368;12.364;2023-06-26T06:06:56;22845.25;;;-141.84;47.26
15260;BME280;34462;51.368;12.364;2023-06-26T06:09:24;22804.59;;;-141.84;47.41
15260;BME280;34462;51.368;12.364;2023-06-26T06:11:53;22794.41;;;-141.84;47.86
15260;BME280;34462;51.368;12.364;2023-06-26T06:14:23;22757.81;;;-141.84;48.19
15260;BME280;34462;51.368;12.364;2023-06-26T06:16:51;22798.47;;;-141.84;47.91
15260;BME280;34462;51.368;12.364;2023-06-26T06:19:20;22774.06;;;-141.84;48.71
15260;BME280;34462;51.368;12.364;2023-06-26T06:21:48;22808.66;;;-141.84;48.59
15260;BME280;34462;51.368;12.364;2023-06-26T06:24:17;22818.81;;;-141.84;48.67
15260;BME280;34462;51.368;12.364;2023-06-26T06:26:45;22879.84;;;-141.84;47.40
15260;BME280;34462;51.368;12.364;2023-06-26T06:29:14;22873.75;;;-141.84;48.19
15260;BME280;34462;51.368;12.364;2023-06-26T06:31:45;22816.78;;;-141.84;47.65
15260;BME280;34462;51.368;12.364;2023-06-26T06:34:14;22800.50;;;-141.84;47.18
15260;BME280;34462;51.368;12.364;2023-06-26T06:36:43;22774.06;;;-141.84;47.94
15260;BME280;34462;51.368;12.364;2023-06-26T06:39:11;22816.78;;;-141.84;47.96
15260;BME280;34462;51.368;12.364;2023-06-26T06:41:40;22784.25;;;-141.84;48.00
15260;BME280;34462;51.368;12.364;2023-06-26T06:44:09;22794.41;;;-141.84;48.79
15260;BME280;34462;51.368;12.364;2023-06-26T06:46:37;22792.38;;;-141.84;48.62
15260;BME280;34462;51.368;12.364;2023-06-26T06:49:09;22810.69;;;-141.84;48.17
15260;BME280;34462;51.368;12.364;2023-06-26T06:51:37;22843.22;;;-141.84;48.19
15260;BME280;34462;51.368;12.364;2023-06-26T06:54:06;22804.59;;;-141.84;48.60
15260;BME280;34462;51.368;12.364;2023-06-26T06:56:34;22814.75;;;-141.84;48.91
15260;BME280;34462;51.368;12.364;2023-06-26T06:59:03;22818.81;;;-141.84;48.40
15260;BME280;34462;51.368;12.364;2023-06-26T07:01:31;22871.72;;;-141.84;47.74
15260;BME280;34462;51.368;12.364;2023-06-26T07:04:00;22849.34;;;-141.84;47.60
15260;BME280;34462;51.368;12.364;2023-06-26T07:06:32;22908.31;;;-141.84;47.98
15260;BME280;34462;51.368;12.364;2023-06-26T07:09:01;22924.59;;;-141.84;47.96
15260;BME280;34462;51.368;12.364;2023-06-26T07:11:30;22932.72;;;-141.84;47.30
15260;BME280;34462;51.368;12.364;2023-06-26T07:13:58;22918.50;;;-141.84;47.86
15260;BME280;34462;51.368;12.364;2023-06-26T07:16:27;22861.53;;;-141.84;48.33
15260;BME280;34462;51.368;12.364;2023-06-26T07:18:56;22900.19;;;-141.84;48.53
15260;BME280;34462;51.368;12.364;2023-06-26T07:21:24;22918.50;;;-141.84;48.51
15260;BME280;34462;51.368;12.364;2023-06-26T07:23:54;22993.75;;;-141.84;48.19
15260;BME280;34462;51.368;12.364;2023-06-26T07:26:23;22991.72;;;-141.84;47.83
15260;BME280;34462;51.368;12.364;2023-06-26T07:28:54;22983.56;;;-141.84;47.84
15260;BME280;34462;51.368;12.364;2023-06-26T07:31:23;23048.66;;;-141.84;47.83
15260;BME280;34462;51.368;12.364;2023-06-26T07:33:52;23048.66;;;-141.84;47.34
15260;BME280;34462;51.368;12.364;2023-06-26T07:36:20;23060.88;;;-141.84;47.55
15260;BME280;34462;51.368;12.364;2023-06-26T07:38:49;23030.34;;;-141.84;47.21
15260;BME280;34462;51.368;12.364;2023-06-26T07:41:19;22985.59;;;-141.84;47.59
15260;BME280;34462;51.368;12.364;2023-06-26T07:43:48;23050.69;;;-141.84;46.53
15260;BME280;34462;51.368;12.364;2023-06-26T07:46:16;23003.91;;;-141.84;46.86
15260;BME280;34462;51.368;12.364;2023-06-26T07:48:45;23036.47;;;-141.84;47.55
15260;BME280;34462;51.368;12.364;2023-06-26T07:51:13;23042.56;;;-141.84;47.63
15260;BME280;34462;51.368;12.364;2023-06-26T07:53:42;23014.09;;;-141.84;47.99
15260;BME280;34462;51.368;12.364;2023-06-26T07:56:11;23062.91;;;-141.84;46.43
15260;BME280;34462;51.368;12.364;2023-06-26T07:58:41;23071.03;;;-141.84;47.27
15260;BME280;34462;51.368;12.364;2023-06-26T08:01:09;23058.84;;;-141.84;46.88
15260;BME280;34462;51.368;12.364;2023-06-26T08:03:38;23056.81;;;-141.84;46.20
15260;BME280;34462;51.368;12.364;2023-06-26T08:06:07;23038.50;;;-141.84;46.81
15260;BME280;34462;51.368;12.364;2023-06-26T08:08:38;23050.69;;;-141.84;46.88
15260;BME280;34462;51.368;12.364;2023-06-26T08:11:07;23113.75;;;-141.84;45.90
15260;BME280;34462;51.368;12.364;2023-06-26T08:13:36;23075.09;;;-141.84;46.21
15260;BME280;34462;51.368;12.364;2023-06-26T08:16:06;23046.63;;;-141.84;47.35
15260;BME280;34462;51.368;12.364;2023-06-26T08:18:34;23117.81;;;-141.84;46.43
15260;BME280;34462;51.368;12.364;2023-06-26T08:21:03;23123.94;;;-141.84;46.62
15260;BME280;34462;51.368;12.364;2023-06-26T08:23:31;23064.94;;;-141.84;46.68
15260;BME280;34462;51.368;12.364;2023-06-26T08:26:00;23026.28;;;-141.84;47.19
15260;BME280;34462;51.368;12.364;2023-06-26T08:28:28;23087.31;;;-141.84;47.28
15260;BME280;34462;51.368;12.364;2023-06-26T08:30:57;23111.72;;;-141.84;47.07
15260;BME280;34462;51.368;12.364;2023-06-26T08:33:28;23099.50;;;-141.84;46.97
15260;BME280;34462;51.368;12.364;2023-06-26T08:35:56;23125.97;;;-141.84;46.28
15260;BME280;34462;51.368;12.364;2023-06-26T08:38:25;23087.31;;;-141.84;46.54
15260;BME280;34462;51.368;12.364;2023-06-26T08:40:53;23140.19;;;-141.84;47.20
15260;BME280;34462;51.368;12.364;2023-06-26T08:43:22;23178.84;;;-141.84;47.00
15260;BME280;34462;51.368;12.364;2023-06-26T08:45:51;23296.81;;;-141.84;45.18
15260;BME280;34462;51.368;12.364;2023-06-26T08:48:21;23274.44;;;-141.84;45.17
15260;BME280;34462;51.368;12.364;2023-06-26T08:50:53;23262.25;;;-141.84;45.62
15260;BME280;34462;51.368;12.364;2023-06-26T08:53:27;23250.03;;;-141.84;45.74
15260;BME280;34462;51.368;12.364;2023-06-26T08:55:58;23233.75;;;-141.84;45.43
15260;BME280;34462;51.368;12.364;2023-06-26T08:58:28;23282.59;;;-141.84;44.92
15260;BME280;34462;51.368;12.364;2023-06-26T09:00:56;23298.84;;;-141.84;44.80
15260;BME280;34462;51.368;12.364;2023-06-26T09:03:25;23329.38;;;-141.84;44.31
15260;BME280;34462;51.368;12.364;2023-06-26T09:05:56;23355.81;;;-141.84;43.36
15260;BME280;34462;51.368;12.364;2023-06-26T09:08:24;23368.03;;;-141.84;43.80
15260;BME280;34462;51.368;12.364;2023-06-26T09:10:53;23412.78;;;-141.84;43.51
15260;BME280;34462;51.368;12.364;2023-06-26T09:13:22;23390.41;;;-141.84;43.66
15260;BME280;34462;51.368;12.364;2023-06-26T09:15:56;23343.63;;;-141.84;43.92
15260;BME280;34462;51.368;12.364;2023-06-26T09:18:26;23400.56;;;-141.84;43.27
15260;BME280;34462;51.368;12.364;2023-06-26T09:20:56;23398.53;;;-141.84;42.81
15260;BME280;34462;51.368;12.364;2023-06-26T09:23:24;23479.91;;;-141.84;42.54
15260;BME280;34462;51.368;12.364;2023-06-26T09:25:53;23457.53;;;-141.84;42.68
15260;BME280;34462;51.368;12.364;2023-06-26T09:28:22;23486.00;;;-141.84;42.28
15260;BME280;34462;51.368;12.364;2023-06-26T09:30:51;23504.31;;;-141.84;42.25
15260;BME280;34462;51.368;12.364;2023-06-26T09:33:21;23628.41;;;-141.84;42.44
15260;BME280;34462;51.368;12.364;2023-06-26T09:35:50;23591.78;;;-141.84;41.85
15260;BME280;34462;51.368;12.364;2023-06-26T09:38:20;23636.53;;;-141.84;41.26
15260;BME280;34462;51.368;12.364;2023-06-26T09:40:48;23575.50;;;-141.84;42.29
15260;BME280;34462;51.368;12.364;2023-06-26T09:43:19;23569.41;;;-141.84;41.36
15260;BME280;34462;51.368;12.364;2023-06-26T09:45:47;23595.84;;;-141.84;41.04
15260;BME280;34462;51.368;12.364;2023-06-26T09:48:16;23660.97;;;-141.84;40.55
15260;BME280;34462;51.368;12.364;2023-06-26T09:50:46;23726.06;;;-141.84;41.01
15260;BME280;34462;51.368;12.364;2023-06-26T09:53:37;23774.88;;;-141.84;41.22
15260;BME280;34462;51.368;12.364;2023-06-26T09:56:06;23738.25;;;-141.84;41.29
15260;BME280;34462;51.368;12.364;2023-06-26T09:58:37;23754.53;;;-141.84;40.76
15260;BME280;34462;51.368;12.364;2023-06-26T10:01:06;23770.81;;;-141.84;41.36
15260;BME280;34462;51.368;12.364;2023-06-26T10:03:37;23724.03;;;-141.84;41.18
15260;BME280;34462;51.368;12.364;2023-06-26T10:06:08;23711.81;;;-141.84;41.12
15260;BME280;34462;51.368;12.364;2023-06-26T10:08:39;23835.91;;;-141.84;39.96
15260;BME280;34462;51.368;12.364;2023-06-26T10:11:14;23819.66;;;-141.84;40.24
15260;BME280;34462;51.368;12.364;2023-06-26T10:13:46;23813.53;;;-141.84;40.74
15260;BME280;34462;51.368;12.364;2023-06-26T10:16:20;23840.00;;;-141.84;39.75
15260;BME280;34462;51.368;12.364;2023-06-26T10:18:53;23890.84;;;-141.84;39.96
15260;BME280;34462;51.368;12.364;2023-06-26T10:21:27;23919.34;;;-141.84;39.10
15260;BME280;34462;51.368;12.364;2023-06-26T10:23:59;23976.31;;;-141.84;38.89
15260;BME280;34462;51.368;12.364;2023-06-26T10:26:29;23929.50;;;-141.84;39.25
15260;BME280;34462;51.368;12.364;2023-06-26T10:28:59;23933.56;;;-141.84;40.01
15260;BME280;34462;51.368;12.364;2023-06-26T10:31:29;24000.72;;;-141.84;39.54
15260;BME280;34462;51.368;12.364;2023-06-26T10:33:59;24118.72;;;-141.84;38.28
15260;BME280;34462;51.368;12.364;2023-06-26T10:36:29;24189.94;;;-141.84;38.52
15260;BME280;34462;51.368;12.364;2023-06-26T10:39:06;24175.69;;;-141.84;37.95
15260;BME280;34462;51.368;12.364;2023-06-26T10:41:38;24202.13;;;-141.84;37.29
15260;BME280;34462;51.368;12.364;2023-06-26T10:44:27;24218.41;;;-141.84;37.96
15260;BME280;34462;51.368;12.364;2023-06-26T10:46:56;24295.72;;;-141.84;36.96
15260;BME280;34462;51.368;12.364;2023-06-26T10:49:27;24330.31;;;-141.84;37.16
15260;BME280;34462;51.368;12.364;2023-06-26T10:52:01;24466.66;;;-141.84;36.03
15260;BME280;34462;51.368;12.364;2023-06-26T10:54:32;24456.47;;;-141.84;36.37
15260;BME280;34462;51.368;12.364;2023-06-26T10:57:02;24421.88;;;-141.84;36.79
15260;BME280;34462;51.368;12.364;2023-06-26T10:59:31;24430.03;;;-141.84;37.07
15260;BME280;34462;51.368;12.364;2023-06-26T11:02:00;24476.81;;;-141.84;36.56
15260;BME280;34462;51.368;12.364;2023-06-26T11:04:39;24503.28;;;-141.84;37.00
15260;BME280;34462;51.368;12.364;2023-06-26T11:07:20;24517.53;;;-141.84;37.01
15260;BME280;34462;51.368;12.364;2023-06-26T11:09:58;24531.75;;;-141.84;36.19
15260;BME280;34462;51.368;12.364;2023-06-26T11:12:37;24609.09;;;-141.84;35.96
15260;BME280;34462;51.368;12.364;2023-06-26T11:15:08;24541.94;;;-141.84;36.03
15260;BME280;34462;51.368;12.364;2023-06-26T11:17:38;24523.63;;;-141.84;36.44
15260;BME280;34462;51.368;12.364;2023-06-26T11:20:08;24554.16;;;-141.84;36.10
15260;BME280;34462;51.368;12.364;2023-06-26T11:22:38;24434.09;;;-141.84;36.89
15260;BME280;34462;51.368;12.364;2023-06-26T11:25:10;24352.69;;;-141.84;37.12
15260;BME280;34462;51.368;12.364;2023-06-26T11:27:39;24362.88;;;-141.84;37.61
15260;BME280;34462;51.368;12.364;2023-06-26T11:30:09;24546.00;;;-141.84;36.46
15260;BME280;34462;51.368;12.364;2023-06-26T11:32:39;24566.34;;;-141.84;36.84
15260;BME280;34462;51.368;12.364;2023-06-26T11:35:08;24649.78;;;-141.84;35.84
15260;BME280;34462;51.368;12.364;2023-06-26T11:37:42;24659.97;;;-141.84;35.61
15260;BME280;34462;51.368;12.364;2023-06-26T11:40:18;24810.53;;;-141.84;34.80
15260;BME280;34462;51.368;12.364;2023-06-26T11:42:47;24824.78;;;-141.84;35.50
15260;BME280;34462;51.368;12.364;2023-06-26T11:45:16;24902.13;;;-141.84;35.43
15260;BME280;34462;51.368;12.364;2023-06-26T11:47:45;24900.09;;;-141.84;35.38
15260;BME280;34462;51.368;12.364;2023-06-26T11:50:15;24853.28;;;-141.84;35.55
15260;BME280;34462;51.368;12.364;2023-06-26T11:52:45;24792.22;;;-141.84;35.00
15260;BME280;34462;51.368;12.364;2023-06-26T11:55:13;24682.34;;;-141.84;35.00
15260;BME280;34462;51.368;12.364;2023-06-26T11:57:48;24625.38;;;-141.84;35.62
15260;BME280;34462;51.368;12.364;2023-06-26T12:00:18;24574.50;;;-141.84;35.77
15260;BME280;34462;51.368;12.364;2023-06-26T12:02:47;24619.25;;;-141.84;36.18
15260;BME280;34462;51.368;12.364;2023-06-26T12:05:17;24698.63;;;-141.84;36.10
15260;BME280;34462;51.368;12.364;2023-06-26T12:07:47;24696.59;;;-141.84;34.94
15260;BME280;34462;51.368;12.364;2023-06-26T12:10:18;24572.47;;;-141.84;35.80
15260;BME280;34462;51.368;12.364;2023-06-26T12:12:48;24379.16;;;-141.84;37.04
15260;BME280;34462;51.368;12.364;2023-06-26T12:15:17;24366.94;;;-141.84;37.19
15260;BME280;34462;51.368;12.364;2023-06-26T12:17:46;24428.00;;;-141.84;36.82
15260;BME280;34462;51.368;12.364;2023-06-26T12:20:21;24556.19;;;-141.84;35.94
15260;BME280;34462;51.368;12.364;2023-06-26T12:22:50;24580.59;;;-141.84;35.32
15260;BME280;34462;51.368;12.364;2023-06-26T12:25:23;24590.78;;;-141.84;35.36
15260;BME280;34462;51.368;12.364;2023-06-26T12:27:53;24554.16;;;-141.84;36.10
15260;BME280;34462;51.368;12.364;2023-06-26T12:30:21;24645.72;;;-141.84;34.94
15260;BME280;34462;51.368;12.364;2023-06-26T12:32:50;24741.34;;;-141.84;35.70
15260;BME280;34462;51.368;12.364;2023-06-26T12:35:18;24973.34;;;-141.84;34.94
15260;BME280;34462;51.368;12.364;2023-06-26T12:37:47;25073.06;;;-141.84;34.95
15260;BME280;34462;51.368;12.364;2023-06-26T12:40:19;24987.59;;;-141.84;35.39
15260;BME280;34462;51.368;12.364;2023-06-26T12:42:51;24955.03;;;-141.84;34.90